Time;durP1;ratioP1;P1;durP2;ratioP2;P2;SDS_P1;SDS_P2;PMS_P1;PMS_P2;Temp;Humidity;BMP_temperature;BMP_pressure;BME280_temperature;BME280_humidity;BME280_pressure;Samples;Min_cycle;Max_cycle;Signal;HPM_P1;HPM_P2
2023/06/03 00:02:01;;;;;;;6.32;4.15;;;;;;;;;;4998193;28;20022;-24
2023/06/03 00:04:30;;;;;;;4.32;3.50;;;;;;;;;;4997895;28;20049;-27
2023/06/03 00:06:57;;;;;;;7.15;3.75;;;;;;;;;;4981778;28;20501;-26
2023/06/03 00:09:23;;;;;;;4.93;3.42;;;;;;;;;;4980766;28;20088;-25
2023/06/03 00:11:50;;;;;;;3.92;3.42;;;;;;;;;;4998097;28;20026;-27
2023/06/03 00:14:17;;;;;;;7.75;3.55;;;;;;;;;;4981150;28;20088;-26
2023/06/03 00:16:46;;;;;;;3.92;3.53;;;;;;;;;;4997694;28;20131;-24
2023/06/03 00:19:14;;;;;;;5.50;3.40;;;;;;;;;;4997658;28;20033;-26
2023/06/03 00:21:49;;;;;;;5.00;3.20;;;;;;;;;;4997582;28;20033;-28
2023/06/03 00:24:15;;;;;;;5.05;3.65;;;;;;;;;;4997443;28;20378;-26
2023/06/03 00:26:41;;;;;;;6.25;3.10;;;;;;;;;;4997598;28;20058;-27
2023/06/03 00:29:08;;;;;;;8.43;3.38;;;;;;;;;;4998058;28;20030;-26
2023/06/03 00:31:34;;;;;;;5.55;3.15;;;;;;;;;;4997778;28;20042;-27
2023/06/03 00:34:00;;;;;;;11.45;3.83;;;;;;;;;;4980250;28;20076;-29
2023/06/03 00:36:26;;;;;;;6.18;3.50;;;;;;;;;;4997756;28;20465;-24
2023/06/03 00:38:52;;;;;;;10.57;3.85;;;;;;;;;;4997368;28;20412;-26
2023/06/03 00:41:19;;;;;;;5.82;3.35;;;;;;;;;;4997333;28;20098;-28
2023/06/03 00:43:45;;;;;;;4.47;3.60;;;;;;;;;;4997263;28;20339;-24
2023/06/03 00:46:11;;;;;;;5.13;2.70;;;;;;;;;;4997254;28;20398;-35
2023/06/03 00:48:41;;;;;;;6.10;3.38;;;;;;;;;;4997235;28;20091;-27
2023/06/03 00:51:07;;;;;;;9.23;4.82;;;;;;;;;;4997130;28;20061;-26
2023/06/03 00:53:34;;;;;;;11.25;3.47;;;;;;;;;;4997036;28;20030;-27
2023/06/03 00:56:00;;;;;;;7.13;3.35;;;;;;;;;;4996989;28;20022;-26
2023/06/03 00:58:27;;;;;;;4.40;3.10;;;;;;;;;;4996975;28;20037;-24
2023/06/03 01:00:53;;;;;;;4.28;3.83;;;;;;;;;;4997190;28;20037;-26
2023/06/03 01:03:20;;;;;;;4.72;3.58;;;;;;;;;;4996668;28;20022;-27
2023/06/03 01:05:49;;;;;;;4.63;3.60;;;;;;;;;;4997191;28;20049;-26
2023/06/03 01:08:15;;;;;;;4.78;3.88;;;;;;;;;;4997095;28;20053;-26
2023/06/03 01:10:43;;;;;;;3.20;2.90;;;;;;;;;;4996787;28;20361;-27
2023/06/03 01:13:09;;;;;;;3.45;3.00;;;;;;;;;;4997086;28;20450;-28
2023/06/03 01:15:36;;;;;;;3.60;3.13;;;;;;;;;;4996869;28;20069;-29
2023/06/03 01:18:05;;;;;;;6.85;3.58;;;;;;;;;;4996625;28;20045;-27
2023/06/03 01:20:31;;;;;;;4.32;3.33;;;;;;;;;;4996597;28;20098;-29
2023/06/03 01:23:19;;;;;;;4.63;3.38;;;;;;;;;;4996670;28;20425;-23
2023/06/03 01:25:46;;;;;;;4.97;3.03;;;;;;;;;;4996834;28;20038;-25
2023/06/03 01:28:12;;;;;;;5.18;2.90;;;;;;;;;;4996411;28;20026;-26
2023/06/03 01:30:39;;;;;;;3.60;3.30;;;;;;;;;;4996384;28;20098;-27
2023/06/03 01:33:05;;;;;;;7.70;3.88;;;;;;;;;;4996282;28;20038;-27
2023/06/03 01:35:32;;;;;;;7.13;3.40;;;;;;;;;;4995487;28;20084;-26
2023/06/03 01:37:58;;;;;;;4.88;4.03;;;;;;;;;;4996517;28;20095;-25
2023/06/03 01:40:24;;;;;;;6.03;3.67;;;;;;;;;;4996244;28;20109;-24
2023/06/03 01:42:50;;;;;;;4.18;3.20;;;;;;;;;;4996120;28;20099;-28
2023/06/03 01:45:17;;;;;;;3.33;2.83;;;;;;;;;;4996107;28;20038;-26
2023/06/03 01:47:43;;;;;;;4.63;3.08;;;;;;;;;;4996078;28;20630;-27
2023/06/03 01:50:09;;;;;;;6.10;4.03;;;;;;;;;;4996002;28;20077;-26
2023/06/03 01:52:35;;;;;;;2.95;2.75;;;;;;;;;;4996203;28;20030;-26
2023/06/03 01:55:03;;;;;;;3.60;3.30;;;;;;;;;;4978680;28;20026;-25
2023/06/03 01:57:29;;;;;;;6.43;3.72;;;;;;;;;;4996173;28;20080;-28
2023/06/03 01:59:55;;;;;;;4.03;3.00;;;;;;;;;;4978694;28;20026;-28
2023/06/03 02:02:22;;;;;;;4.05;3.55;;;;;;;;;;4996026;28;20350;-26
2023/06/03 02:04:48;;;;;;;4.07;3.03;;;;;;;;;;4995606;28;20063;-25
2023/06/03 02:07:14;;;;;;;4.30;3.13;;;;;;;;;;4996002;28;20046;-24
2023/06/03 02:09:40;;;;;;;5.53;2.95;;;;;;;;;;4978768;28;20042;-26
2023/06/03 02:12:06;;;;;;;4.05;3.03;;;;;;;;;;4978454;28;20030;-26
2023/06/03 02:14:32;;;;;;;4.28;2.80;;;;;;;;;;4995647;28;20335;-26
2023/06/03 02:17:02;;;;;;;3.60;3.25;;;;;;;;;;4995525;28;20027;-27
2023/06/03 02:19:28;;;;;;;9.63;4.10;;;;;;;;;;4995446;28;20061;-27
2023/06/03 02:21:58;;;;;;;3.38;3.05;;;;;;;;;;4995540;28;20018;-24
2023/06/03 02:24:28;;;;;;;6.00;3.38;;;;;;;;;;4995568;28;20453;-25
2023/06/03 02:26:56;;;;;;;3.45;3.15;;;;;;;;;;4995457;28;20417;-25
2023/06/03 02:29:23;;;;;;;4.53;3.40;;;;;;;;;;4995390;28;20037;-27
2023/06/03 02:31:50;;;;;;;7.25;3.63;;;;;;;;;;4995367;28;20030;-26
2023/06/03 02:34:16;;;;;;;6.13;2.90;;;;;;;;;;4995326;28;20143;-26
2023/06/03 02:36:43;;;;;;;5.00;3.13;;;;;;;;;;4995226;28;20454;-28
2023/06/03 02:39:10;;;;;;;3.88;2.95;;;;;;;;;;4995205;28;20022;-35
2023/06/03 02:41:39;;;;;;;3.95;3.35;;;;;;;;;;4995265;28;20037;-25
2023/06/03 02:44:06;;;;;;;4.18;3.13;;;;;;;;;;4995708;28;20101;-27
2023/06/03 02:46:32;;;;;;;4.68;3.00;;;;;;;;;;4995115;28;20034;-28
2023/06/03 02:48:58;;;;;;;4.30;2.92;;;;;;;;;;4995241;28;20026;-25
2023/06/03 02:51:25;;;;;;;3.97;3.58;;;;;;;;;;4995242;28;20026;-28
2023/06/03 02:53:51;;;;;;;6.30;3.50;;;;;;;;;;4995397;28;20026;-25
2023/06/03 02:56:17;;;;;;;3.95;2.95;;;;;;;;;;4995072;28;20026;-28
2023/06/03 02:58:43;;;;;;;7.05;3.15;;;;;;;;;;4995366;28;20026;-26
2023/06/03 03:01:09;;;;;;;3.28;3.00;;;;;;;;;;4995399;28;20050;-27
2023/06/03 03:03:36;;;;;;;4.50;3.65;;;;;;;;;;4994999;28;20042;-28
2023/06/03 03:06:03;;;;;;;8.88;3.22;;;;;;;;;;4995019;28;20496;-27
2023/06/03 03:08:31;;;;;;;3.63;3.33;;;;;;;;;;4995043;28;20026;-26
2023/06/03 03:10:57;;;;;;;3.78;3.20;;;;;;;;;;4995238;28;20123;-27
2023/06/03 03:13:23;;;;;;;5.03;3.10;;;;;;;;;;4994937;28;20369;-28
2023/06/03 03:15:49;;;;;;;4.45;3.55;;;;;;;;;;4994868;28;20031;-26
2023/06/03 03:18:15;;;;;;;4.22;3.10;;;;;;;;;;4995208;28;20529;-27
2023/06/03 03:20:42;;;;;;;3.88;3.58;;;;;;;;;;4994901;28;20054;-24
2023/06/03 03:23:08;;;;;;;8.15;3.28;;;;;;;;;;4994863;28;20034;-25
2023/06/03 03:25:35;;;;;;;5.70;3.20;;;;;;;;;;4977905;28;20101;-26
2023/06/03 03:28:01;;;;;;;4.07;3.03;;;;;;;;;;4995096;28;20150;-27
2023/06/03 03:30:27;;;;;;;3.35;2.78;;;;;;;;;;4977968;28;20407;-24
2023/06/03 03:32:53;;;;;;;6.63;3.03;;;;;;;;;;4994728;28;20026;-26
2023/06/03 03:35:20;;;;;;;3.78;2.67;;;;;;;;;;4994985;28;20054;-26
2023/06/03 03:37:47;;;;;;;4.63;3.47;;;;;;;;;;4995045;28;20018;-24
2023/06/03 03:40:20;;;;;;;6.97;3.45;;;;;;;;;;4977614;28;20097;-28
2023/06/03 03:42:52;;;;;;;3.13;2.92;;;;;;;;;;4994838;28;20027;-26
2023/06/03 03:45:20;;;;;;;4.47;2.80;;;;;;;;;;4994961;28;20105;-28
2023/06/03 03:47:50;;;;;;;3.28;3.08;;;;;;;;;;4994922;28;20034;-27
2023/06/03 03:50:36;;;;;;;5.32;3.03;;;;;;;;;;4994687;28;20041;-25
2023/06/03 03:53:05;;;;;;;4.15;3.20;;;;;;;;;;4964581;28;20533;-26
2023/06/03 03:55:32;;;;;;;3.95;3.38;;;;;;;;;;4994605;28;20164;-29
2023/06/03 03:58:02;;;;;;;3.55;2.88;;;;;;;;;;4994854;28;20101;-26
2023/06/03 04:00:29;;;;;;;6.03;3.30;;;;;;;;;;4998139;28;20080;-28
2023/06/03 04:02:56;;;;;;;4.00;2.58;;;;;;;;;;4998200;28;20269;-27
2023/06/03 04:05:22;;;;;;;3.20;2.92;;;;;;;;;;4980690;28;20133;-27
2023/06/03 04:07:49;;;;;;;2.55;2.35;;;;;;;;;;4997861;28;20035;-27
2023/06/03 04:10:15;;;;;;;3.88;2.78;;;;;;;;;;4997889;28;20106;-27
2023/06/03 04:12:42;;;;;;;3.08;2.75;;;;;;;;;;4997673;28;20036;-27
2023/06/03 04:15:09;;;;;;;5.60;2.80;;;;;;;;;;4997690;28;20038;-24
2023/06/03 04:17:37;;;;;;;3.55;2.78;;;;;;;;;;4997711;28;20038;-26
2023/06/03 04:20:07;;;;;;;5.22;3.10;;;;;;;;;;4997750;28;20022;-24
2023/06/03 04:22:33;;;;;;;5.18;3.15;;;;;;;;;;4997549;28;20022;-25
2023/06/03 04:25:03;;;;;;;4.07;3.75;;;;;;;;;;4997892;28;20044;-27
2023/06/03 04:27:29;;;;;;;6.43;3.28;;;;;;;;;;4997603;28;20026;-25
2023/06/03 04:29:56;;;;;;;3.22;2.97;;;;;;;;;;4997417;28;20172;-24
2023/06/03 04:32:22;;;;;;;3.30;2.70;;;;;;;;;;4997635;28;20029;-27
2023/06/03 04:34:49;;;;;;;4.88;3.15;;;;;;;;;;4997737;28;20026;-27
2023/06/03 04:37:16;;;;;;;3.85;2.90;;;;;;;;;;4997377;28;20049;-26
2023/06/03 04:39:42;;;;;;;4.22;3.20;;;;;;;;;;4997370;28;20497;-25
2023/06/03 04:42:10;;;;;;;3.47;3.20;;;;;;;;;;4997279;28;20095;-27
2023/06/03 04:44:40;;;;;;;2.75;2.55;;;;;;;;;;4997484;28;20023;-23
2023/06/03 04:47:10;;;;;;;3.22;2.90;;;;;;;;;;4997502;28;20022;-28
2023/06/03 04:49:38;;;;;;;4.15;2.92;;;;;;;;;;4997662;28;20026;-29
2023/06/03 04:52:09;;;;;;;4.40;2.97;;;;;;;;;;4996975;28;20465;-27
2023/06/03 04:54:35;;;;;;;6.05;3.08;;;;;;;;;;4997116;28;20405;-27
2023/06/03 04:57:01;;;;;;;4.05;3.45;;;;;;;;;;4996979;28;20120;-26
2023/06/03 04:59:27;;;;;;;3.22;3.00;;;;;;;;;;4997029;28;20116;-23
2023/06/03 05:01:53;;;;;;;4.20;3.25;;;;;;;;;;4997218;28;20098;-24
2023/06/03 05:04:19;;;;;;;2.88;2.63;;;;;;;;;;4996672;28;20051;-27
2023/06/03 05:06:46;;;;;;;2.92;2.20;;;;;;;;;;4997086;28;20410;-26
2023/06/03 05:09:13;;;;;;;2.95;2.67;;;;;;;;;;4996671;28;20465;-29
2023/06/03 05:11:39;;;;;;;3.17;2.78;;;;;;;;;;4995876;28;20433;-24
2023/06/03 05:14:06;;;;;;;3.38;3.08;;;;;;;;;;4996921;28;20041;-26
2023/06/03 05:16:33;;;;;;;3.70;3.35;;;;;;;;;;4996530;28;20026;-26
2023/06/03 05:18:59;;;;;;;3.25;2.95;;;;;;;;;;4996896;28;20026;-24
2023/06/03 05:21:25;;;;;;;3.15;2.85;;;;;;;;;;4996875;28;20014;-27
2023/06/03 05:23:51;;;;;;;3.45;2.70;;;;;;;;;;4996713;28;20022;-26
2023/06/03 05:26:17;;;;;;;3.65;2.88;;;;;;;;;;4996489;28;20101;-27
2023/06/03 05:28:44;;;;;;;3.22;2.92;;;;;;;;;;4996611;28;20050;-23
2023/06/03 05:31:10;;;;;;;4.55;2.70;;;;;;;;;;4996654;28;20030;-24
2023/06/03 05:33:36;;;;;;;4.85;3.20;;;;;;;;;;4996555;28;20030;-25
2023/06/03 05:36:02;;;;;;;3.67;3.00;;;;;;;;;;4996500;28;20037;-28
2023/06/03 05:38:30;;;;;;;3.65;3.28;;;;;;;;;;4996250;28;20030;-26
2023/06/03 05:40:56;;;;;;;3.40;3.08;;;;;;;;;;4996933;28;20392;-28
2023/06/03 05:43:25;;;;;;;4.40;3.20;;;;;;;;;;4996150;28;20026;-28
2023/06/03 05:45:51;;;;;;;3.00;2.67;;;;;;;;;;4996422;28;20106;-26
2023/06/03 05:48:18;;;;;;;3.42;3.13;;;;;;;;;;4996404;28;20422;-27
2023/06/03 05:50:48;;;;;;;6.50;3.20;;;;;;;;;;4996262;28;20037;-27
2023/06/03 05:53:15;;;;;;;2.80;2.60;;;;;;;;;;4996221;28;20038;-27
2023/06/03 05:55:41;;;;;;;3.67;2.67;;;;;;;;;;4996150;28;20036;-28
2023/06/03 05:58:07;;;;;;;3.17;2.80;;;;;;;;;;4996175;28;20027;-27
2023/06/03 06:00:33;;;;;;;5.97;2.67;;;;;;;;;;4995859;28;20080;-26
2023/06/03 06:02:59;;;;;;;3.58;3.28;;;;;;;;;;4995772;28;20026;-24
2023/06/03 06:05:25;;;;;;;2.42;2.20;;;;;;;;;;4995649;28;20547;-24
2023/06/03 06:07:51;;;;;;;3.33;2.75;;;;;;;;;;4995742;28;20454;-27
2023/06/03 06:10:18;;;;;;;2.95;2.60;;;;;;;;;;4995974;28;20096;-27
2023/06/03 06:12:44;;;;;;;2.88;2.60;;;;;;;;;;4995615;28;20034;-24
2023/06/03 06:15:10;;;;;;;4.93;3.50;;;;;;;;;;4995542;28;20030;-26
2023/06/03 06:17:37;;;;;;;4.32;2.90;;;;;;;;;;4995569;28;20058;-27
2023/06/03 06:20:04;;;;;;;4.63;2.58;;;;;;;;;;4995507;28;20033;-26
2023/06/03 06:22:31;;;;;;;3.03;2.83;;;;;;;;;;4995310;28;20034;-25
2023/06/03 06:24:57;;;;;;;3.20;2.90;;;;;;;;;;4978556;28;20453;-27
2023/06/03 06:27:23;;;;;;;3.13;2.72;;;;;;;;;;4995449;28;20084;-28
2023/06/03 06:29:49;;;;;;;2.92;2.70;;;;;;;;;;4995434;28;20029;-27
2023/06/03 06:32:22;;;;;;;7.28;2.67;;;;;;;;;;4995599;28;20108;-27
2023/06/03 06:34:48;;;;;;;4.30;2.60;;;;;;;;;;4995629;28;20041;-28
2023/06/03 06:37:14;;;;;;;3.15;2.72;;;;;;;;;;4995266;28;20102;-27
2023/06/03 06:39:40;;;;;;;2.78;2.58;;;;;;;;;;4995547;28;20034;-25
2023/06/03 06:42:11;;;;;;;3.25;2.90;;;;;;;;;;4978148;28;20038;-27
2023/06/03 06:44:48;;;;;;;3.30;2.70;;;;;;;;;;4995243;28;20038;-26
2023/06/03 06:47:21;;;;;;;6.15;2.63;;;;;;;;;;4995256;28;20092;-27
2023/06/03 06:49:48;;;;;;;2.92;2.72;;;;;;;;;;4995484;28;20037;-24
2023/06/03 06:52:14;;;;;;;3.03;2.72;;;;;;;;;;4995109;28;20054;-27
2023/06/03 06:54:41;;;;;;;3.28;2.97;;;;;;;;;;4995435;28;20030;-26
2023/06/03 06:57:07;;;;;;;3.25;2.83;;;;;;;;;;4995298;28;20092;-25
2023/06/03 06:59:33;;;;;;;4.90;2.78;;;;;;;;;;4995108;28;20067;-27
2023/06/03 07:02:00;;;;;;;3.63;2.92;;;;;;;;;;4995002;28;20038;-27
2023/06/03 07:04:26;;;;;;;2.60;2.40;;;;;;;;;;4994798;28;20055;-26
2023/06/03 07:06:53;;;;;;;3.80;3.50;;;;;;;;;;4995306;28;20466;-26
2023/06/03 07:09:19;;;;;;;3.15;2.90;;;;;;;;;;4995056;28;20034;-26
2023/06/03 07:11:46;;;;;;;4.30;3.00;;;;;;;;;;4977817;28;20026;-24
2023/06/03 07:14:12;;;;;;;6.20;3.50;;;;;;;;;;4994921;28;20105;-26
2023/06/03 07:16:39;;;;;;;3.00;2.75;;;;;;;;;;4995155;28;20030;-27
2023/06/03 07:19:06;;;;;;;3.63;2.63;;;;;;;;;;4995242;28;20386;-27
2023/06/03 07:21:33;;;;;;;3.47;3.00;;;;;;;;;;4995913;28;20073;-24
2023/06/03 07:23:59;;;;;;;3.20;2.72;;;;;;;;;;4994822;28;20097;-24
2023/06/03 07:26:31;;;;;;;3.03;2.70;;;;;;;;;;4994896;28;20489;-24
2023/06/03 07:28:58;;;;;;;4.30;3.90;;;;;;;;;;4995377;28;20051;-27
2023/06/03 07:31:25;;;;;;;2.83;2.63;;;;;;;;;;4995117;28;20038;-26
2023/06/03 07:33:55;;;;;;;3.92;2.95;;;;;;;;;;4978904;28;20327;-28
2023/06/03 07:36:22;;;;;;;3.20;2.90;;;;;;;;;;4998519;28;20077;-25
2023/06/03 07:39:00;;;;;;;3.25;2.97;;;;;;;;;;4998513;28;20088;-25
2023/06/03 07:41:39;;;;;;;3.58;3.05;;;;;;;;;;4998703;28;20441;-26
2023/06/03 07:44:06;;;;;;;3.60;3.30;;;;;;;;;;4998315;28;20022;-26
2023/06/03 07:46:38;;;;;;;2.78;2.55;;;;;;;;;;4998627;28;20026;-25
2023/06/03 07:49:07;;;;;;;5.30;3.08;;;;;;;;;;4998644;28;20057;-27
2023/06/03 07:51:34;;;;;;;3.47;3.25;;;;;;;;;;4998295;28;20362;-28
2023/06/03 07:54:00;;;;;;;3.00;2.65;;;;;;;;;;4998170;28;20343;-23
2023/06/03 07:56:27;;;;;;;2.97;2.78;;;;;;;;;;4998389;28;20041;-27
2023/06/03 07:58:54;;;;;;;2.85;2.40;;;;;;;;;;4998385;28;20072;-26
2023/06/03 08:01:23;;;;;;;3.53;3.22;;;;;;;;;;4998114;28;20022;-25
2023/06/03 08:03:49;;;;;;;4.47;3.65;;;;;;;;;;4997760;28;20058;-27
2023/06/03 08:06:15;;;;;;;3.08;2.85;;;;;;;;;;4998270;28;20030;-25
2023/06/03 08:08:41;;;;;;;3.45;3.03;;;;;;;;;;4997964;28;20062;-29
2023/06/03 08:11:08;;;;;;;5.00;3.00;;;;;;;;;;4998214;28;20026;-26
2023/06/03 08:13:34;;;;;;;3.20;2.90;;;;;;;;;;4997824;28;20034;-26
2023/06/03 08:16:01;;;;;;;3.10;2.85;;;;;;;;;;4997748;28;20105;-27
2023/06/03 08:18:30;;;;;;;3.10;2.83;;;;;;;;;;4980677;28;20030;-25
2023/06/03 08:21:01;;;;;;;4.55;2.75;;;;;;;;;;4980615;28;20319;-26
2023/06/03 08:23:27;;;;;;;;;;;;;;;;;;4980937;28;20453;-26
2023/06/03 08:25:53;;;;;;;5.10;3.55;;;;;;;;;;4997923;28;19956;-27
2023/06/03 08:28:19;;;;;;;3.10;2.80;;;;;;;;;;4997554;28;20030;-24
2023/06/03 08:30:45;;;;;;;3.65;3.03;;;;;;;;;;4997621;28;20358;-27
2023/06/03 08:33:11;;;;;;;2.80;2.60;;;;;;;;;;4997618;28;20026;-26
2023/06/03 08:35:37;;;;;;;3.13;2.78;;;;;;;;;;4997401;28;20026;-24
2023/06/03 08:38:03;;;;;;;2.95;2.65;;;;;;;;;;4997460;28;20022;-26
2023/06/03 08:40:31;;;;;;;2.95;2.65;;;;;;;;;;4997686;28;20022;-28
2023/06/03 08:43:03;;;;;;;3.03;2.75;;;;;;;;;;4997276;28;20030;-26
2023/06/03 08:45:36;;;;;;;3.00;2.70;;;;;;;;;;4996972;28;20029;-24
2023/06/03 08:48:06;;;;;;;2.70;2.50;;;;;;;;;;4997588;28;20022;-24
2023/06/03 08:50:35;;;;;;;3.20;2.90;;;;;;;;;;4997251;28;20026;-27
2023/06/03 08:53:08;;;;;;;2.67;2.47;;;;;;;;;;4997361;28;20033;-27
2023/06/03 08:55:35;;;;;;;3.63;3.08;;;;;;;;;;4996989;28;20030;-26
2023/06/03 08:58:13;;;;;;;4.63;3.05;;;;;;;;;;4997602;28;20105;-29
2023/06/03 09:00:39;;;;;;;2.97;2.67;;;;;;;;;;4997242;28;20508;-26
2023/06/03 09:03:07;;;;;;;2.90;2.70;;;;;;;;;;4996779;28;20393;-27
2023/06/03 09:05:36;;;;;;;3.40;3.10;;;;;;;;;;4996898;28;20034;-24
2023/06/03 09:08:03;;;;;;;3.25;3.05;;;;;;;;;;4997119;28;20061;-25
2023/06/03 09:10:31;;;;;;;2.80;2.60;;;;;;;;;;4997081;28;20027;-24
2023/06/03 09:12:58;;;;;;;3.85;3.00;;;;;;;;;;4996941;28;20069;-26
2023/06/03 09:15:25;;;;;;;3.08;2.50;;;;;;;;;;4996676;28;20524;-28
2023/06/03 09:17:51;;;;;;;3.10;2.90;;;;;;;;;;4996990;28;20443;-26
2023/06/03 09:20:18;;;;;;;3.22;2.92;;;;;;;;;;4996664;28;20076;-24
2023/06/03 09:22:46;;;;;;;5.43;3.00;;;;;;;;;;4996525;28;20080;-25
2023/06/03 09:25:13;;;;;;;3.78;2.63;;;;;;;;;;4996505;28;20346;-25
2023/06/03 09:27:40;;;;;;;4.68;3.10;;;;;;;;;;4996771;28;20028;-28
2023/06/03 09:30:06;;;;;;;3.33;3.10;;;;;;;;;;4996435;28;20049;-25
2023/06/03 09:32:35;;;;;;;2.88;2.67;;;;;;;;;;4996306;28;20027;-27
2023/06/03 09:35:05;;;;;;;6.15;3.35;;;;;;;;;;4979113;28;20023;-28
2023/06/03 09:37:34;;;;;;;3.03;2.72;;;;;;;;;;4996356;28;20084;-28
2023/06/03 09:40:00;;;;;;;3.05;2.85;;;;;;;;;;4996526;28;20439;-25
2023/06/03 09:42:46;;;;;;;4.90;3.25;;;;;;;;;;4996179;28;20068;-23
2023/06/03 09:45:32;;;;;;;3.70;2.72;;;;;;;;;;4996168;28;20101;-26
2023/06/03 09:47:59;;;;;;;3.50;3.20;;;;;;;;;;4996280;28;20029;-24
2023/06/03 09:50:26;;;;;;;2.70;2.50;;;;;;;;;;4996096;28;20061;-28
2023/06/03 09:52:53;;;;;;;3.78;2.78;;;;;;;;;;4996127;28;20022;-26
2023/06/03 09:55:19;;;;;;;3.00;2.80;;;;;;;;;;4995960;28;20022;-24
2023/06/03 09:58:05;;;;;;;3.42;2.70;;;;;;;;;;4995257;28;20124;-27
2023/06/03 10:00:48;;;;;;;3.08;2.50;;;;;;;;;;4996127;28;20041;-25
2023/06/03 10:03:14;;;;;;;3.28;2.80;;;;;;;;;;4995565;28;20050;-26
2023/06/03 10:05:41;;;;;;;2.63;2.50;;;;;;;;;;4996110;28;20043;-28
2023/06/03 10:08:07;;;;;;;4.82;2.80;;;;;;;;;;4995692;28;20036;-27
2023/06/03 10:10:33;;;;;;;2.92;2.72;;;;;;;;;;4995746;28;20038;-24
2023/06/03 10:13:19;;;;;;;3.05;2.80;;;;;;;;;;4995617;28;20053;-24
2023/06/03 10:15:46;;;;;;;3.15;2.85;;;;;;;;;;4978451;28;20477;-28
2023/06/03 10:18:12;;;;;;;2.83;2.63;;;;;;;;;;4995916;28;20334;-23
2023/06/03 10:20:42;;;;;;;3.05;2.67;;;;;;;;;;4995588;28;20018;-26
2023/06/03 10:23:09;;;;;;;2.42;2.22;;;;;;;;;;4995484;28;20022;-26
2023/06/03 10:25:46;;;;;;;3.17;2.83;;;;;;;;;;4995536;28;20034;-25
2023/06/03 10:28:13;;;;;;;2.72;2.42;;;;;;;;;;4995545;28;20030;-27
2023/06/03 10:30:41;;;;;;;2.60;2.42;;;;;;;;;;4995463;28;20097;-26
2023/06/03 10:33:10;;;;;;;2.97;2.78;;;;;;;;;;4978248;28;20347;-25
2023/06/03 10:35:37;;;;;;;3.40;3.10;;;;;;;;;;4995371;28;20037;-27
2023/06/03 10:38:07;;;;;;;3.70;3.40;;;;;;;;;;4995382;28;20026;-26
2023/06/03 10:40:33;;;;;;;2.88;2.47;;;;;;;;;;4995595;28;20026;-27
2023/06/03 10:42:59;;;;;;;3.33;2.58;;;;;;;;;;4995472;28;20072;-26
2023/06/03 10:45:26;;;;;;;2.80;2.60;;;;;;;;;;4995299;28;20497;-26
2023/06/03 10:47:57;;;;;;;4.13;3.00;;;;;;;;;;4995275;28;20023;-27
2023/06/03 10:50:38;;;;;;;3.10;2.85;;;;;;;;;;4995591;28;20026;-27
2023/06/03 10:53:04;;;;;;;4.15;3.45;;;;;;;;;;4995156;28;20048;-26
2023/06/03 10:55:43;;;;;;;2.50;2.33;;;;;;;;;;4978007;28;20170;-28
2023/06/03 10:58:25;;;;;;;2.65;2.55;;;;;;;;;;4995127;28;20032;-26
2023/06/03 11:01:04;;;;;;;3.38;3.08;;;;;;;;;;4995154;28;20085;-25
2023/06/03 11:03:32;;;;;;;2.95;2.75;;;;;;;;;;4995106;28;20126;-25
2023/06/03 11:06:16;;;;;;;3.30;3.10;;;;;;;;;;4995081;28;20468;-27
2023/06/03 11:09:03;;;;;;;3.67;3.38;;;;;;;;;;4997914;28;20366;-25
2023/06/03 11:11:41;;;;;;;3.47;2.80;;;;;;;;;;4999302;28;20018;-26
2023/06/03 11:14:31;;;;;;;3.53;2.97;;;;;;;;;;4998930;28;20045;-26
2023/06/03 11:16:57;;;;;;;2.90;2.70;;;;;;;;;;4963386;28;20046;-26
2023/06/03 11:19:31;;;;;;;3.10;2.90;;;;;;;;;;4998934;28;20031;-27
2023/06/03 11:21:57;;;;;;;5.25;2.80;;;;;;;;;;4999122;28;20033;-26
2023/06/03 11:24:44;;;;;;;3.17;2.88;;;;;;;;;;4999086;28;20027;-25
2023/06/03 11:27:10;;;;;;;2.88;2.75;;;;;;;;;;4985947;28;20042;-25
2023/06/03 11:29:45;;;;;;;4.47;2.83;;;;;;;;;;4998974;28;20042;-26
2023/06/03 11:32:12;;;;;;;3.40;3.10;;;;;;;;;;4999172;28;20457;-26
2023/06/03 11:34:38;;;;;;;2.60;2.50;;;;;;;;;;4998647;28;20062;-24
2023/06/03 11:37:05;;;;;;;3.58;2.95;;;;;;;;;;4998561;28;20520;-27
2023/06/03 11:39:49;;;;;;;4.32;3.15;;;;;;;;;;4998564;28;20353;-27
2023/06/03 11:42:15;;;;;;;4.15;3.10;;;;;;;;;;4998444;28;20040;-26
2023/06/03 11:44:42;;;;;;;3.90;3.60;;;;;;;;;;4998722;28;20022;-25
2023/06/03 11:47:08;;;;;;;3.67;3.38;;;;;;;;;;4981530;28;20453;-27
2023/06/03 11:49:35;;;;;;;2.67;2.47;;;;;;;;;;4998641;28;20056;-27
2023/06/03 11:52:02;;;;;;;2.90;2.70;;;;;;;;;;4981072;28;20105;-26
2023/06/03 11:54:28;;;;;;;3.67;3.28;;;;;;;;;;4998308;28;20034;-27
2023/06/03 11:56:55;;;;;;;3.03;2.83;;;;;;;;;;4998421;28;20089;-25
2023/06/03 11:59:31;;;;;;;2.90;2.70;;;;;;;;;;4998440;28;20050;-25
2023/06/03 12:02:04;;;;;;;2.85;2.72;;;;;;;;;;4998409;28;20077;-24
2023/06/03 12:04:31;;;;;;;3.33;3.03;;;;;;;;;;4998059;28;20504;-25
2023/06/03 12:06:58;;;;;;;3.30;3.00;;;;;;;;;;4998052;28;20037;-29
2023/06/03 12:09:26;;;;;;;3.00;2.80;;;;;;;;;;4998026;28;20101;-26
2023/06/03 12:11:53;;;;;;;3.22;3.03;;;;;;;;;;4998229;28;20030;-26
2023/06/03 12:14:26;;;;;;;3.20;3.00;;;;;;;;;;4997889;28;20034;-26
2023/06/03 12:16:52;;;;;;;3.22;2.85;;;;;;;;;;4998070;28;20042;-28
2023/06/03 12:19:19;;;;;;;2.70;2.50;;;;;;;;;;4980022;28;20030;-25
2023/06/03 12:21:54;;;;;;;3.33;3.03;;;;;;;;;;4997795;28;20153;-25
2023/06/03 12:24:26;;;;;;;2.95;2.75;;;;;;;;;;4997647;28;20023;-26
2023/06/03 12:26:54;;;;;;;3.65;3.35;;;;;;;;;;4997997;28;20360;-27
2023/06/03 12:29:20;;;;;;;2.72;2.53;;;;;;;;;;4980426;28;20023;-25
2023/06/03 12:32:03;;;;;;;3.25;3.05;;;;;;;;;;4997585;28;20037;-26
2023/06/03 12:34:30;;;;;;;3.13;2.92;;;;;;;;;;4997536;28;20124;-23
2023/06/03 12:36:56;;;;;;;3.00;2.80;;;;;;;;;;4980220;28;20465;-26
2023/06/03 12:39:38;;;;;;;3.25;2.63;;;;;;;;;;4997519;28;20477;-28
2023/06/03 12:42:04;;;;;;;3.33;3.05;;;;;;;;;;4997370;28;20045;-26
2023/06/03 12:44:31;;;;;;;2.88;2.67;;;;;;;;;;4997660;28;20026;-25
2023/06/03 12:47:01;;;;;;;2.85;2.65;;;;;;;;;;4997347;28;20026;-27
2023/06/03 12:49:27;;;;;;;3.77;3.30;;;;;;;;;;4997606;28;20373;-28
2023/06/03 12:51:53;;;;;;;3.00;2.80;;;;;;;;;;4997249;28;20277;-26
2023/06/03 12:54:19;;;;;;;3.00;2.78;;;;;;;;;;4997390;28;20028;-26
2023/06/03 12:56:46;;;;;;;2.88;2.67;;;;;;;;;;4979883;28;20030;-23
2023/06/03 12:59:13;;;;;;;2.88;2.67;;;;;;;;;;4997357;28;20053;-26
2023/06/03 13:01:39;;;;;;;3.17;2.97;;;;;;;;;;4997060;28;20077;-26
2023/06/03 13:04:05;;;;;;;3.92;3.30;;;;;;;;;;4996762;28;20043;-24
2023/06/03 13:06:31;;;;;;;2.90;2.70;;;;;;;;;;4997234;28;20349;-27
2023/06/03 13:08:57;;;;;;;3.38;3.15;;;;;;;;;;4996944;28;20064;-26
2023/06/03 13:11:23;;;;;;;2.78;2.58;;;;;;;;;;4997462;28;20400;-26
2023/06/03 13:13:49;;;;;;;3.40;3.10;;;;;;;;;;4996754;28;20026;-28
2023/06/03 13:16:16;;;;;;;3.10;2.90;;;;;;;;;;4996674;28;20066;-27
2023/06/03 13:18:42;;;;;;;5.63;3.03;;;;;;;;;;4996710;28;20549;-27
2023/06/03 13:21:08;;;;;;;3.38;3.03;;;;;;;;;;4996683;28;20152;-26
2023/06/03 13:23:34;;;;;;;3.55;3.28;;;;;;;;;;4996584;28;20118;-26
2023/06/03 13:26:01;;;;;;;3.97;3.10;;;;;;;;;;4996818;28;20405;-27
2023/06/03 13:28:27;;;;;;;5.00;3.42;;;;;;;;;;4979391;28;20097;-26
2023/06/03 13:30:53;;;;;;;3.30;3.00;;;;;;;;;;4995661;28;20031;-26
2023/06/03 13:33:19;;;;;;;2.90;2.70;;;;;;;;;;4996294;28;20105;-28
2023/06/03 13:35:45;;;;;;;3.17;2.80;;;;;;;;;;4996336;28;20034;-27
2023/06/03 13:38:12;;;;;;;2.88;2.67;;;;;;;;;;4996630;28;20036;-26
2023/06/03 13:40:39;;;;;;;2.97;2.78;;;;;;;;;;4996579;28;20023;-27
2023/06/03 13:43:05;;;;;;;3.03;2.83;;;;;;;;;;4996193;28;20058;-28
2023/06/03 13:45:31;;;;;;;3.35;3.15;;;;;;;;;;4996243;28;20409;-25
2023/06/03 13:47:57;;;;;;;2.70;2.50;;;;;;;;;;4996174;28;20092;-25
2023/06/03 13:50:23;;;;;;;3.33;3.03;;;;;;;;;;4996633;28;20037;-26
2023/06/03 13:52:56;;;;;;;3.45;3.15;;;;;;;;;;5113011;27;20391;-20
2023/06/03 13:55:23;;;;;;;3.33;3.03;;;;;;;;;;5112540;28;20024;-20
2023/06/03 13:57:49;;;;;;;3.35;3.05;;;;;;;;;;5112459;28;20024;-21
2023/06/03 14:00:15;;;;;;;2.63;2.53;;;;;;;;;;5112483;28;20038;-21
2023/06/03 14:02:41;;;;;;;3.03;2.83;;;;;;;;;;5112327;28;20089;-22
2023/06/03 14:05:07;;;;;;;2.97;2.78;;;;;;;;;;5111418;28;20454;-21
2023/06/03 14:07:34;;;;;;;3.05;2.85;;;;;;;;;;5112291;28;20418;-21
2023/06/03 14:10:00;;;;;;;3.08;2.85;;;;;;;;;;5112252;28;20485;-20
2023/06/03 14:12:26;;;;;;;3.78;3.47;;;;;;;;;;5112090;28;20028;-20
2023/06/03 14:14:53;;;;;;;3.22;2.95;;;;;;;;;;5112132;28;20023;-20
2023/06/03 14:17:22;;;;;;;3.58;3.38;;;;;;;;;;5112385;28;20389;-22
2023/06/03 14:19:48;;;;;;;3.05;2.85;;;;;;;;;;5112388;28;20016;-21
2023/06/03 14:22:14;;;;;;;2.65;2.45;;;;;;;;;;5112010;28;20468;-20
2023/06/03 14:24:40;;;;;;;3.20;3.00;;;;;;;;;;5111970;28;20088;-19
2023/06/03 14:27:06;;;;;;;2.97;2.78;;;;;;;;;;5111960;28;20023;-19
2023/06/03 14:29:32;;;;;;;3.28;3.08;;;;;;;;;;5112189;28;20028;-22
2023/06/03 14:31:59;;;;;;;3.25;3.05;;;;;;;;;;5111718;28;20050;-24
2023/06/03 14:34:25;;;;;;;3.15;2.95;;;;;;;;;;5112112;28;20057;-23
2023/06/03 14:36:51;;;;;;;3.25;3.05;;;;;;;;;;5111760;28;20081;-23
2023/06/03 14:39:17;;;;;;;3.63;3.33;;;;;;;;;;5112260;28;20035;-21
2023/06/03 14:41:43;;;;;;;3.15;2.85;;;;;;;;;;5111919;28;20099;-20
2023/06/03 14:44:09;;;;;;;2.88;2.78;;;;;;;;;;5111607;28;20059;-24
2023/06/03 14:46:35;;;;;;;3.70;2.72;;;;;;;;;;5111871;28;20051;-25
2023/06/03 14:49:02;;;;;;;3.13;2.92;;;;;;;;;;5110852;28;20351;-24